Aviation Digital Data Service (ADDS)

Output produced by METARs form (0253 UTC 19 October 2021)
found at http://www.aviationweather.gov/metar/data/
 
Forecast for: AMD
Text: TAF AMD ETMN 181743Z 1817/1902 17005KT 9999 NSW SCT080 BKN190 BY ETGG
Forecast period: 1700 UTC 18 October 2021 to 0200 UTC 19 October 2021
Forecast type: FROM: standard forecast or significant change
Winds: from the S (170 degrees) at 6 MPH (5 knots; 2.6 m/s)
Visibility: 6 or more miles (10+ km)
Ceiling: 19000 feet AGL
Clouds: scattered clouds at 8000 feet AGL
broken clouds at 19000 feet AGL
Weather: NSW  (no significant weather)